createdAt,value
2023-03-04T00:01:16.227Z,-0.20
2023-03-04T00:03:43.008Z,-0.20
2023-03-04T00:06:09.969Z,-0.20
2023-03-04T00:08:36.570Z,-0.20
2023-03-04T00:11:03.185Z,-0.20
2023-03-04T00:13:29.743Z,-0.20
2023-03-04T00:15:56.574Z,-0.20
2023-03-04T00:18:23.394Z,-0.20
2023-03-04T00:20:50.485Z,-0.30
2023-03-04T00:23:17.533Z,-0.30
2023-03-04T00:25:44.101Z,-0.40
2023-03-04T00:28:10.767Z,-0.30
2023-03-04T00:30:37.379Z,-0.30
2023-03-04T00:33:03.937Z,-0.30
2023-03-04T00:35:30.548Z,-0.40
2023-03-04T00:37:57.214Z,-0.50
2023-03-04T00:40:23.785Z,-0.60
2023-03-04T00:42:50.417Z,-0.70
2023-03-04T00:45:17.044Z,-0.80
2023-03-04T00:47:43.575Z,-0.80
2023-03-04T00:50:10.851Z,-0.80
2023-03-04T00:52:37.428Z,-0.70
2023-03-04T00:55:05.396Z,-0.70
2023-03-04T00:57:32.018Z,-0.70
2023-03-04T00:59:58.571Z,-0.70
2023-03-04T01:02:25.388Z,-0.80
2023-03-04T01:04:52.225Z,-0.80
2023-03-04T01:07:19.001Z,-0.90
2023-03-04T01:09:45.539Z,-1.00
2023-03-04T01:12:12.171Z,-0.90
2023-03-04T01:14:38.804Z,-0.70
2023-03-04T01:17:05.394Z,-0.60
2023-03-04T01:19:32.566Z,-0.70
2023-03-04T01:21:59.097Z,-0.70
2023-03-04T01:24:25.689Z,-0.70
2023-03-04T01:26:52.285Z,-0.70
2023-03-04T01:29:18.880Z,-0.70
2023-03-04T01:31:45.436Z,-0.70
2023-03-04T01:34:11.969Z,-0.70
2023-03-04T01:36:38.599Z,-0.60
2023-03-04T01:39:05.374Z,-0.60
2023-03-04T01:41:32.587Z,-0.50
2023-03-04T01:44:02.196Z,-0.60
2023-03-04T01:46:30.665Z,-0.70
2023-03-04T01:48:57.656Z,-0.80
2023-03-04T01:51:24.696Z,-0.80
2023-03-04T01:53:53.317Z,-0.80
2023-03-04T01:56:24.029Z,-0.80
2023-03-04T01:59:17.715Z,-0.90
2023-03-04T02:01:53.611Z,-0.90
2023-03-04T02:04:23.332Z,-1.00
2023-03-04T02:06:50.708Z,-1.00
2023-03-04T02:09:18.236Z,-1.00
2023-03-04T02:11:46.293Z,-1.10
2023-03-04T02:14:14.916Z,-1.20
2023-03-04T02:16:41.719Z,-1.20
2023-03-04T02:19:24.855Z,-1.20
2023-03-04T02:21:51.498Z,-1.30
2023-03-04T02:24:41.393Z,-1.30
2023-03-04T02:27:08.159Z,-1.30
2023-03-04T02:29:34.959Z,-1.30
2023-03-04T02:32:01.646Z,-1.40
2023-03-04T02:34:36.103Z,-1.40
2023-03-04T02:37:04.428Z,-1.50
2023-03-04T02:39:45.351Z,-1.50
2023-03-04T02:42:12.241Z,-1.60
2023-03-04T02:44:41.873Z,-1.60
2023-03-04T02:47:10.411Z,-1.70
2023-03-04T02:49:38.931Z,-1.70
2023-03-04T02:52:08.732Z,-1.70
2023-03-04T02:54:35.449Z,-1.70
2023-03-04T02:57:05.031Z,-1.70
2023-03-04T02:59:31.630Z,-1.60
2023-03-04T03:01:58.404Z,-1.60
2023-03-04T03:04:26.665Z,-1.60
2023-03-04T03:06:53.271Z,-1.60
2023-03-04T03:09:20.477Z,-1.60
2023-03-04T03:11:47.145Z,-1.70
2023-03-04T03:14:13.801Z,-1.80
2023-03-04T03:16:40.422Z,-1.80
2023-03-04T03:19:07.069Z,-1.80
2023-03-04T03:21:33.635Z,-1.70
2023-03-04T03:24:00.273Z,-1.70
2023-03-04T03:26:26.831Z,-1.70
2023-03-04T03:28:53.397Z,-1.70
2023-03-04T03:31:20.137Z,-1.60
2023-03-04T03:33:46.930Z,-1.60
2023-03-04T03:36:13.573Z,-1.60
2023-03-04T03:38:40.183Z,-1.50
2023-03-04T03:41:06.720Z,-1.50
2023-03-04T03:43:33.299Z,-1.50
2023-03-04T03:45:59.899Z,-1.50
2023-03-04T03:48:26.492Z,-1.50
2023-03-04T03:50:53.053Z,-1.60
2023-03-04T03:53:19.731Z,-1.50
2023-03-04T03:55:46.308Z,-1.50
2023-03-04T03:58:12.918Z,-1.60
2023-03-04T04:00:39.519Z,-1.60
2023-03-04T04:03:06.397Z,-1.50
2023-03-04T04:05:33.059Z,-1.40
2023-03-04T04:07:59.664Z,-1.40
2023-03-04T04:10:26.455Z,-1.40
2023-03-04T04:12:53.257Z,-1.40
2023-03-04T04:15:19.906Z,-1.50
2023-03-04T04:17:46.475Z,-1.50
2023-03-04T04:20:13.118Z,-1.50
2023-03-04T04:22:39.664Z,-1.60
2023-03-04T04:25:08.829Z,-1.50
2023-03-04T04:27:35.503Z,-1.60
2023-03-04T04:30:02.277Z,-1.60
2023-03-04T04:32:28.852Z,-1.60
2023-03-04T04:34:55.534Z,-1.60
2023-03-04T04:37:22.137Z,-1.60
2023-03-04T04:39:48.751Z,-1.60
2023-03-04T04:42:15.313Z,-1.50
2023-03-04T04:44:41.866Z,-1.60
2023-03-04T04:47:09.988Z,-1.60
2023-03-04T04:49:36.675Z,-1.60
2023-03-04T04:52:03.595Z,-1.60
2023-03-04T04:54:30.299Z,-1.70
2023-03-04T04:56:56.886Z,-1.70
2023-03-04T04:59:23.565Z,-1.70
2023-03-04T05:01:50.250Z,-1.80
2023-03-04T05:04:16.880Z,-1.80
2023-03-04T05:06:43.564Z,-1.80
2023-03-04T05:09:10.160Z,-1.90
2023-03-04T05:11:36.758Z,-2.00
2023-03-04T05:14:03.394Z,-2.00
2023-03-04T05:16:29.999Z,-2.00
2023-03-04T05:18:56.538Z,-2.00
2023-03-04T05:21:23.107Z,-1.90
2023-03-04T05:23:49.774Z,-1.90
2023-03-04T05:26:18.260Z,-2.00
2023-03-04T05:28:45.618Z,-2.00
2023-03-04T05:31:12.391Z,-2.10
2023-03-04T05:33:39.409Z,-2.40
2023-03-04T05:36:06.617Z,-1.90
2023-03-04T05:38:33.627Z,-1.90
2023-03-04T05:41:03.358Z,-2.00
2023-03-04T05:43:30.840Z,-2.00
2023-03-04T05:45:57.527Z,-2.00
2023-03-04T05:48:24.225Z,-2.10
2023-03-04T05:50:59.138Z,-2.10
2023-03-04T05:53:26.072Z,-2.20
2023-03-04T05:55:52.726Z,-2.20
2023-03-04T05:58:20.153Z,-2.20
2023-03-04T06:00:47.795Z,-2.30
2023-03-04T06:03:19.299Z,-2.30
2023-03-04T06:05:45.906Z,-2.30
2023-03-04T06:08:13.311Z,-2.30
2023-03-04T06:10:41.642Z,-2.40
2023-03-04T06:13:09.383Z,-2.40
2023-03-04T06:15:36.077Z,-2.40
2023-03-04T06:18:02.983Z,-2.30
2023-03-04T06:20:29.642Z,-2.40
2023-03-04T06:22:56.276Z,-2.40
2023-03-04T06:25:23.894Z,-2.40
2023-03-04T06:27:50.985Z,-2.30
2023-03-04T06:30:18.954Z,-2.20
2023-03-04T06:32:47.459Z,-2.20
2023-03-04T06:35:15.592Z,-2.20
2023-03-04T06:37:42.793Z,-2.20
2023-03-04T06:40:10.221Z,-2.20
2023-03-04T06:42:37.575Z,-2.10
2023-03-04T06:45:04.997Z,-2.00
2023-03-04T06:47:31.590Z,-2.00
2023-03-04T06:49:58.250Z,-1.80
2023-03-04T06:52:25.093Z,-1.80
2023-03-04T06:54:51.714Z,-1.70
2023-03-04T06:57:18.336Z,-1.60
2023-03-04T06:59:44.897Z,-1.50
2023-03-04T07:02:12.513Z,-1.30
2023-03-04T07:04:40.030Z,-1.20
2023-03-04T07:07:06.859Z,-1.10
2023-03-04T07:09:33.466Z,-0.90
2023-03-04T07:12:00.082Z,-0.80
2023-03-04T07:14:27.771Z,-0.70
2023-03-04T07:16:54.561Z,-0.60
2023-03-04T07:19:21.315Z,-0.50
2023-03-04T07:21:47.910Z,-0.40
2023-03-04T07:24:14.641Z,-0.30
2023-03-04T07:26:41.333Z,-0.20
2023-03-04T07:29:07.938Z,-0.20
2023-03-04T07:31:35.651Z,-0.10
2023-03-04T07:34:08.065Z,0.10
2023-03-04T07:36:36.773Z,0.20
2023-03-04T07:39:03.969Z,0.30
2023-03-04T07:41:32.398Z,0.40
2023-03-04T07:43:59.425Z,0.20
2023-03-04T07:46:26.370Z,0.00
2023-03-04T07:48:52.949Z,0.20
2023-03-04T07:51:21.922Z,0.20
2023-03-04T07:53:51.167Z,0.30
2023-03-04T07:56:24.423Z,0.40
2023-03-04T07:58:53.552Z,0.30
2023-03-04T08:01:23.967Z,0.50
2023-03-04T08:03:50.608Z,0.40
2023-03-04T08:06:19.463Z,0.40
2023-03-04T08:08:46.495Z,0.60
2023-03-04T08:13:43.653Z,0.90
2023-03-04T08:18:48.156Z,0.50
2023-03-04T08:21:18.315Z,0.50
2023-03-04T08:31:18.263Z,0.90
2023-03-04T08:33:46.294Z,1.00
2023-03-04T08:36:13.849Z,1.00
2023-03-04T08:38:40.758Z,1.10
2023-03-04T08:41:07.377Z,1.00
2023-03-04T08:43:34.750Z,1.20
2023-03-04T08:46:04.708Z,1.30
2023-03-04T08:48:31.408Z,1.20
2023-03-04T08:53:27.571Z,1.50
2023-03-04T08:55:54.129Z,1.50
2023-03-04T08:58:20.971Z,1.50
2023-03-04T09:00:51.347Z,1.50
2023-03-04T09:03:21.764Z,1.50
2023-03-04T09:05:49.238Z,1.50
2023-03-04T09:08:16.494Z,1.60
2023-03-04T09:10:43.904Z,1.70
2023-03-04T09:13:17.378Z,1.50
2023-03-04T09:15:46.287Z,1.50
2023-03-04T09:18:13.975Z,1.50
2023-03-04T09:20:40.810Z,1.50
2023-03-04T09:23:09.410Z,1.50
2023-03-04T09:25:37.777Z,1.50
2023-03-04T09:28:05.445Z,1.60
2023-03-04T09:30:32.719Z,1.60
2023-03-04T09:32:59.329Z,1.70
2023-03-04T09:35:26.049Z,1.80
2023-03-04T09:37:52.928Z,2.20
2023-03-04T09:40:27.202Z,2.50
2023-03-04T09:43:03.273Z,2.80
2023-03-04T09:45:38.497Z,3.10
2023-03-04T09:48:07.068Z,3.40
2023-03-04T09:50:39.551Z,3.70
2023-03-04T09:53:26.360Z,3.70
2023-03-04T09:55:53.176Z,3.80
2023-03-04T09:58:51.846Z,3.50
2023-03-04T10:01:48.026Z,3.50
2023-03-04T10:04:32.324Z,3.50
2023-03-04T10:07:00.351Z,3.50
2023-03-04T10:09:39.104Z,3.40
2023-03-04T10:12:15.820Z,3.40
2023-03-04T10:14:59.267Z,3.20
2023-03-04T10:20:19.503Z,3.00
2023-03-04T10:22:51.861Z,3.00
2023-03-04T10:25:25.549Z,3.10
2023-03-04T10:28:05.899Z,3.30
2023-03-04T10:30:51.320Z,3.80
2023-03-04T10:33:21.316Z,3.60
2023-03-04T10:36:23.064Z,3.40
2023-03-04T10:38:53.524Z,3.30
2023-03-04T10:41:22.797Z,3.30
2023-03-04T10:44:25.460Z,3.10
2023-03-04T10:46:55.692Z,3.20
2023-03-04T10:49:24.789Z,3.30
2023-03-04T10:52:26.634Z,3.50
2023-03-04T10:54:56.860Z,3.60
2023-03-04T11:00:17.483Z,3.60
2023-03-04T11:02:48.376Z,3.70
2023-03-04T11:05:15.166Z,3.50
2023-03-04T11:07:55.883Z,3.40
2023-03-04T11:10:25.034Z,3.30
2023-03-04T11:20:32.613Z,3.50
2023-03-04T11:23:05.449Z,3.60
2023-03-04T11:25:46.270Z,3.60
2023-03-04T11:28:26.096Z,3.80
2023-03-04T11:33:43.505Z,3.50
2023-03-04T12:04:40.646Z,3.20
2023-03-04T12:07:36.647Z,3.00
2023-03-04T12:10:33.335Z,3.00
2023-03-04T12:13:14.458Z,3.10
2023-03-04T12:15:56.723Z,3.10
2023-03-04T12:18:32.116Z,3.10
2023-03-04T12:21:04.460Z,3.10
2023-03-04T12:24:07.408Z,3.10
2023-03-04T12:26:50.578Z,3.10
2023-03-04T12:29:58.434Z,3.00
2023-03-04T12:32:34.838Z,3.10
2023-03-04T12:35:23.367Z,3.20
2023-03-04T12:38:25.615Z,3.20
2023-03-04T12:41:11.657Z,3.20
2023-03-04T12:44:19.430Z,2.80
2023-03-04T12:47:00.343Z,2.90
2023-03-04T12:49:51.885Z,2.80
2023-03-04T12:52:35.565Z,2.90
2023-03-04T12:55:12.337Z,3.00
2023-03-04T12:57:40.459Z,3.10
2023-03-04T13:00:34.803Z,2.90
2023-03-04T13:03:10.520Z,2.90
2023-03-04T13:05:43.293Z,3.00
2023-03-04T13:08:24.621Z,3.00
2023-03-04T13:10:52.337Z,3.10
2023-03-04T13:13:41.452Z,3.10
2023-03-04T13:16:13.959Z,3.10
2023-03-04T13:18:40.668Z,3.00
2023-03-04T13:21:26.733Z,3.10
2023-03-04T13:23:53.845Z,3.10
2023-03-04T13:26:30.312Z,3.10
2023-03-04T13:29:13.934Z,3.10
2023-03-04T13:31:59.646Z,3.00
2023-03-04T13:34:46.050Z,3.10
2023-03-04T13:37:55.974Z,3.10
2023-03-04T13:40:23.283Z,3.00
2023-03-04T13:42:50.504Z,3.00
2023-03-04T13:45:31.908Z,3.00
2023-03-04T13:47:58.942Z,3.00
2023-03-04T13:50:38.120Z,3.10
2023-03-04T13:53:32.081Z,3.10
2023-03-04T13:56:09.233Z,3.10
2023-03-04T13:58:37.652Z,3.20
2023-03-04T14:01:04.741Z,3.30
2023-03-04T14:03:31.992Z,3.20
2023-03-04T14:06:17.177Z,3.10
2023-03-04T14:08:45.110Z,3.10
2023-03-04T14:11:24.859Z,3.10
2023-03-04T14:13:52.343Z,3.00
2023-03-04T14:16:21.177Z,3.00
2023-03-04T14:18:58.464Z,3.10
2023-03-04T14:21:25.190Z,3.10
2023-03-04T14:24:04.668Z,3.10
2023-03-04T14:26:31.719Z,2.90
2023-03-04T14:28:59.615Z,3.00
2023-03-04T14:31:30.018Z,2.90
2023-03-04T14:34:02.356Z,2.90
2023-03-04T14:36:35.620Z,2.80
2023-03-04T14:39:06.177Z,2.90
2023-03-04T14:41:35.729Z,2.80
2023-03-04T14:44:30.088Z,2.70
2023-03-04T14:47:07.858Z,2.80
2023-03-04T14:49:36.917Z,2.80
2023-03-04T14:52:03.787Z,2.80
2023-03-04T14:54:34.266Z,2.80
2023-03-04T14:57:21.179Z,2.70
2023-03-04T14:59:47.961Z,2.70
2023-03-04T15:02:31.174Z,2.70
2023-03-04T15:05:16.427Z,2.70
2023-03-04T15:07:45.016Z,2.70
2023-03-04T15:10:12.644Z,2.80
2023-03-04T15:12:39.248Z,2.80
2023-03-04T15:15:39.930Z,2.70
2023-03-04T15:18:27.918Z,2.70
2023-03-04T15:21:04.705Z,2.80
2023-03-04T15:23:33.457Z,2.80
2023-03-04T15:26:03.091Z,2.80
2023-03-04T15:28:37.312Z,2.80
2023-03-04T15:31:05.860Z,2.80
2023-03-04T15:33:32.807Z,2.80
2023-03-04T15:36:02.328Z,2.70
2023-03-04T15:38:29.817Z,2.70
2023-03-04T15:40:58.512Z,2.70
2023-03-04T15:43:25.312Z,2.70
2023-03-04T15:45:52.730Z,2.70
2023-03-04T15:48:20.537Z,2.80
2023-03-04T15:51:02.723Z,2.80
2023-03-04T15:53:42.034Z,2.80
2023-03-04T15:56:16.272Z,2.80
2023-03-04T15:58:44.085Z,2.80
2023-03-04T16:01:16.625Z,2.80
2023-03-04T16:03:43.349Z,2.70
2023-03-04T16:06:13.011Z,2.70
2023-03-04T16:08:40.680Z,2.70
2023-03-04T16:11:10.556Z,2.70
2023-03-04T16:13:37.093Z,2.70
2023-03-04T16:16:03.895Z,2.70
2023-03-04T16:18:30.967Z,2.70
2023-03-04T16:20:57.532Z,2.70
2023-03-04T16:23:24.975Z,2.70
2023-03-04T16:25:56.551Z,2.60
2023-03-04T16:28:23.339Z,2.70
2023-03-04T16:30:50.352Z,2.60
2023-03-04T16:33:17.144Z,2.60
2023-03-04T16:35:45.336Z,2.60
2023-03-04T16:38:22.203Z,2.60
2023-03-04T16:40:49.557Z,2.60
2023-03-04T16:43:16.107Z,2.60
2023-03-04T16:45:42.841Z,2.60
2023-03-04T16:48:09.519Z,2.60
2023-03-04T16:50:37.119Z,2.60
2023-03-04T16:53:04.960Z,2.60
2023-03-04T16:55:32.305Z,2.60
2023-03-04T16:57:59.055Z,2.50
2023-03-04T17:00:27.959Z,2.50
2023-03-04T17:03:00.999Z,2.60
2023-03-04T17:05:32.250Z,2.50
2023-03-04T17:07:59.171Z,2.50
2023-03-04T17:10:26.062Z,2.50
2023-03-04T17:12:52.913Z,2.50
2023-03-04T17:15:19.784Z,2.50
2023-03-04T17:17:46.518Z,2.50
2023-03-04T17:20:18.009Z,2.50
2023-03-04T17:22:45.237Z,2.50
2023-03-04T17:25:15.799Z,2.50
2023-03-04T17:27:43.112Z,2.50
2023-03-04T17:30:12.773Z,2.50
2023-03-04T17:32:40.126Z,2.50
2023-03-04T17:35:08.693Z,2.50
2023-03-04T17:37:35.846Z,2.50
2023-03-04T17:40:08.663Z,2.50
2023-03-04T17:42:35.493Z,2.50
2023-03-04T17:45:02.180Z,2.50
2023-03-04T17:47:28.904Z,2.50
2023-03-04T17:49:55.599Z,2.40
2023-03-04T17:52:22.191Z,2.40
2023-03-04T17:54:48.827Z,2.40
2023-03-04T17:57:15.441Z,2.50
2023-03-04T17:59:42.192Z,2.50
2023-03-04T18:02:14.170Z,2.50
2023-03-04T18:04:40.786Z,2.40
2023-03-04T18:07:07.511Z,2.40
2023-03-04T18:09:34.063Z,2.40
2023-03-04T18:12:01.317Z,2.40
2023-03-04T18:14:28.023Z,2.40
2023-03-04T18:16:54.721Z,2.40
2023-03-04T18:19:21.277Z,2.40
2023-03-04T18:21:47.911Z,2.40
2023-03-04T18:24:14.748Z,2.40
2023-03-04T18:26:41.382Z,2.40
2023-03-04T18:29:08.141Z,2.40
2023-03-04T18:31:36.671Z,2.40
2023-03-04T18:34:04.764Z,2.40
2023-03-04T18:36:31.585Z,2.40
2023-03-04T18:38:59.479Z,2.40
2023-03-04T18:41:27.771Z,2.40
2023-03-04T18:43:54.778Z,2.40
2023-03-04T18:46:45.521Z,2.40
2023-03-04T18:49:13.980Z,2.40
2023-03-04T18:51:40.616Z,2.40
2023-03-04T18:54:07.426Z,2.40
2023-03-04T18:56:41.130Z,2.40
2023-03-04T18:59:32.402Z,2.40
2023-03-04T19:02:03.665Z,2.40
2023-03-04T19:04:30.741Z,2.40
2023-03-04T19:06:58.941Z,2.50
2023-03-04T19:09:25.708Z,2.60
2023-03-04T19:11:52.289Z,2.50
2023-03-04T19:14:18.867Z,2.50
2023-03-04T19:16:45.500Z,2.50
2023-03-04T19:19:12.587Z,2.50
2023-03-04T19:21:40.174Z,2.50
2023-03-04T19:24:07.164Z,2.40
2023-03-04T19:26:33.899Z,2.40
2023-03-04T19:29:01.791Z,2.40
2023-03-04T19:31:28.867Z,2.40
2023-03-04T19:33:55.500Z,2.50
2023-03-04T19:36:22.197Z,2.40
2023-03-04T19:38:48.852Z,2.50
2023-03-04T19:41:16.898Z,2.50
2023-03-04T19:43:45.876Z,2.60
2023-03-04T19:46:13.935Z,2.60
2023-03-04T19:48:41.436Z,2.60
2023-03-04T19:51:19.959Z,2.60
2023-03-04T19:53:46.954Z,2.60
2023-03-04T19:56:13.621Z,2.60
2023-03-04T19:58:40.320Z,2.60
2023-03-04T20:01:06.938Z,2.60
2023-03-04T20:03:33.685Z,2.60
2023-03-04T20:06:05.905Z,2.60
2023-03-04T20:08:32.730Z,2.70
2023-03-04T20:10:59.305Z,2.60
2023-03-04T20:13:26.123Z,2.70
2023-03-04T20:15:52.822Z,2.70
2023-03-04T20:18:19.525Z,2.60
2023-03-04T20:20:46.176Z,2.70
2023-03-04T20:23:12.714Z,2.70
2023-03-04T20:25:39.446Z,2.60
2023-03-04T20:28:06.046Z,2.60
2023-03-04T20:30:32.608Z,2.60
2023-03-04T20:32:59.184Z,2.60
2023-03-04T20:35:25.761Z,2.60
2023-03-04T20:37:52.407Z,2.60
2023-03-04T20:40:19.072Z,2.60
2023-03-04T20:42:46.976Z,2.60
2023-03-04T20:45:13.755Z,2.60
2023-03-04T20:47:40.328Z,2.70
2023-03-04T20:50:07.303Z,2.70
2023-03-04T20:52:33.859Z,2.70
2023-03-04T20:55:00.476Z,2.70
2023-03-04T20:57:27.135Z,2.70
2023-03-04T20:59:53.683Z,2.70
2023-03-04T21:02:20.667Z,2.70
2023-03-04T21:04:47.249Z,2.70
2023-03-04T21:07:14.048Z,2.70
2023-03-04T21:09:40.732Z,2.80
2023-03-04T21:12:07.958Z,2.80
2023-03-04T21:14:34.531Z,2.80
2023-03-04T21:17:03.567Z,2.80
2023-03-04T21:19:39.874Z,2.90
2023-03-04T21:22:06.491Z,2.90
2023-03-04T21:24:35.355Z,2.80
2023-03-04T21:27:04.170Z,2.80
2023-03-04T21:29:30.844Z,2.80
2023-03-04T21:32:17.229Z,2.80
2023-03-04T21:34:51.790Z,2.80
2023-03-04T21:37:22.545Z,2.70
2023-03-04T21:39:49.187Z,2.70
2023-03-04T21:42:15.911Z,2.70
2023-03-04T21:44:49.687Z,2.70
2023-03-04T21:47:17.475Z,2.80
2023-03-04T21:49:44.163Z,2.70
2023-03-04T21:52:10.885Z,2.70
2023-03-04T21:54:37.471Z,2.70
2023-03-04T21:57:04.096Z,2.60
2023-03-04T21:59:30.689Z,2.60
2023-03-04T22:01:57.732Z,2.60
2023-03-04T22:04:24.421Z,2.70
2023-03-04T22:06:50.989Z,2.60
2023-03-04T22:09:17.684Z,2.60
2023-03-04T22:11:44.346Z,2.70
2023-03-04T22:14:11.128Z,2.70
2023-03-04T22:16:49.036Z,2.70
2023-03-04T22:19:21.140Z,2.60
2023-03-04T22:21:47.718Z,2.60
2023-03-04T22:24:14.291Z,2.60
2023-03-04T22:26:40.941Z,2.60
2023-03-04T22:29:07.636Z,2.60
2023-03-04T22:31:36.650Z,2.60
2023-03-04T22:34:06.857Z,2.60
2023-03-04T22:36:35.826Z,2.60
2023-03-04T22:39:04.393Z,2.70
2023-03-04T22:41:30.953Z,2.70
2023-03-04T22:43:58.708Z,2.60
2023-03-04T22:46:30.957Z,2.70
2023-03-04T22:49:00.040Z,2.70
2023-03-04T22:51:27.394Z,2.70
2023-03-04T22:53:54.212Z,2.80
2023-03-04T22:56:21.034Z,2.80
2023-03-04T22:58:48.155Z,2.80
2023-03-04T23:01:16.040Z,2.70
2023-03-04T23:03:44.177Z,2.70
2023-03-04T23:06:17.797Z,2.80
2023-03-04T23:08:46.713Z,2.70
2023-03-04T23:11:21.790Z,2.70
2023-03-04T23:13:49.918Z,2.70
2023-03-04T23:16:30.402Z,2.70
2023-03-04T23:18:59.251Z,2.70
2023-03-04T23:21:28.148Z,2.70
2023-03-04T23:23:54.938Z,2.70
2023-03-04T23:26:27.421Z,2.80
2023-03-04T23:28:56.805Z,2.80
2023-03-04T23:31:23.901Z,2.90
2023-03-04T23:33:50.554Z,2.90
2023-03-04T23:36:18.950Z,2.90
2023-03-04T23:38:47.805Z,3.00
2023-03-04T23:41:25.806Z,3.00
2023-03-04T23:43:54.447Z,3.00
2023-03-04T23:46:21.383Z,3.00
2023-03-04T23:48:48.730Z,3.00
2023-03-04T23:51:17.900Z,2.90
2023-03-04T23:53:44.598Z,2.90
2023-03-04T23:56:13.359Z,2.90
2023-03-04T23:58:41.213Z,2.90
